Hilly, Louisiana
Current Conditions -  °F | °C
As of 3:35 PM on Thursday 23 Oct 2014 (Local Time) from KRSN Reporting Station
Clear Clear  
Wind Chill: 61°   Ceiling: Unl
Heat Index: 61°   Visibility: 10mi
Dew Point: 54°   Wind: 3mph
Humidity: 76%   Direction: 350°N
Pressure: 30.17"   Gusts: NA
Location:  32.6988°N, 92.6981°W
Report Text: KRSN 232035Z AUTO 35003KT 10SM CLR 16/12 A3017 RMK AO2 T01630120
Loading
Personal Weather Stations






























Interactive Weather Map New forecast layout! Learn more

10-Day Weather Forecast

Advertisements
Track Severe Weather on mobile